createdAt,value
2023-02-14T00:00:28.898Z,10.63
2023-02-14T00:02:56.904Z,10.03
2023-02-14T00:05:23.337Z,10.00
2023-02-14T00:07:49.698Z,9.77
2023-02-14T00:10:16.252Z,8.67
2023-02-14T00:12:42.701Z,9.57
2023-02-14T00:15:22.345Z,8.87
2023-02-14T00:17:50.076Z,9.13
2023-02-14T00:20:16.601Z,9.17
2023-02-14T00:22:43.817Z,10.07
2023-02-14T00:25:10.317Z,9.07
2023-02-14T00:27:36.672Z,9.97
2023-02-14T00:30:03.494Z,10.17
2023-02-14T00:32:30.180Z,10.20
2023-02-14T00:34:56.839Z,10.13
2023-02-14T00:40:25.827Z,9.93
2023-02-14T00:42:52.147Z,9.93
2023-02-14T00:45:20.407Z,9.53
2023-02-14T00:47:46.814Z,9.60
2023-02-14T00:50:13.140Z,9.70
2023-02-14T00:52:39.528Z,9.37
2023-02-14T00:55:06.137Z,9.50
2023-02-14T00:57:32.562Z,9.93
2023-02-14T00:59:58.908Z,9.87
2023-02-14T01:02:25.238Z,9.37
2023-02-14T01:04:51.620Z,10.00
2023-02-14T01:07:17.932Z,10.40
2023-02-14T01:09:44.228Z,9.60
2023-02-14T01:12:10.612Z,11.03
2023-02-14T01:14:38.193Z,9.67
2023-02-14T01:19:52.197Z,10.03
2023-02-14T01:22:19.123Z,10.77
2023-02-14T01:27:29.287Z,10.40
2023-02-14T01:29:55.662Z,9.60
2023-02-14T01:32:22.016Z,10.03
2023-02-14T01:40:16.989Z,9.23
2023-02-14T01:42:43.623Z,10.73
2023-02-14T01:45:21.223Z,10.53
2023-02-14T01:47:51.730Z,9.57
2023-02-14T01:50:24.216Z,10.60
2023-02-14T01:52:57.889Z,10.20
2023-02-14T01:55:28.970Z,9.50
2023-02-14T01:58:04.773Z,9.63
2023-02-14T02:00:49.493Z,9.40
2023-02-14T02:03:17.469Z,9.93
2023-02-14T02:05:52.304Z,9.60
2023-02-14T02:08:18.578Z,9.77
2023-02-14T02:10:44.837Z,9.43
2023-02-14T02:13:18.143Z,9.17
2023-02-14T02:16:21.693Z,10.23
2023-02-14T02:19:30.157Z,9.33
2023-02-14T02:22:15.713Z,9.13
2023-02-14T02:24:59.828Z,8.50
2023-02-14T02:27:55.297Z,9.43
2023-02-14T02:30:34.973Z,9.37
2023-02-14T02:33:19.155Z,9.67
2023-02-14T02:36:03.686Z,9.70
2023-02-14T02:39:01.334Z,9.90
2023-02-14T02:41:48.187Z,9.23
2023-02-14T02:44:26.697Z,9.43
2023-02-14T02:47:05.621Z,9.90
2023-02-14T02:50:21.405Z,10.00
2023-02-14T02:53:06.152Z,9.33
2023-02-14T02:56:02.029Z,8.93
2023-02-14T02:58:43.043Z,9.50
2023-02-14T03:01:14.787Z,8.73
2023-02-14T03:04:04.876Z,10.40
2023-02-14T03:06:32.093Z,9.70
2023-02-14T03:09:29.205Z,10.03
2023-02-14T03:12:24.608Z,9.60
2023-02-14T03:15:02.560Z,9.83
2023-02-14T03:18:01.282Z,10.30
2023-02-14T03:21:00.752Z,9.93
2023-02-14T03:23:36.007Z,10.80
2023-02-14T03:26:08.093Z,10.50
2023-02-14T03:28:53.243Z,10.00
2023-02-14T03:31:55.955Z,10.53
2023-02-14T03:34:41.262Z,10.43
2023-02-14T03:37:15.444Z,10.47
2023-02-14T03:40:05.075Z,11.50
2023-02-14T03:42:37.847Z,11.77
2023-02-14T03:45:07.974Z,10.73
2023-02-14T03:47:37.331Z,11.33
2023-02-14T03:50:11.061Z,10.53
2023-02-14T03:52:38.762Z,11.10
2023-02-14T03:55:06.962Z,12.43
2023-02-14T03:57:55.661Z,11.70
2023-02-14T04:00:22.636Z,11.67
2023-02-14T04:02:55.016Z,11.17
2023-02-14T04:05:27.381Z,11.93
2023-02-14T04:07:56.823Z,11.10
2023-02-14T04:10:24.125Z,10.93
2023-02-14T04:12:50.904Z,11.07
2023-02-14T04:15:17.740Z,11.37
2023-02-14T04:18:02.791Z,9.83
2023-02-14T04:20:30.304Z,10.37
2023-02-14T04:22:57.457Z,9.50
2023-02-14T04:25:23.797Z,12.33
2023-02-14T04:27:50.179Z,11.07
2023-02-14T04:30:18.098Z,11.63
2023-02-14T04:32:44.691Z,12.13
2023-02-14T04:35:11.009Z,10.43
2023-02-14T04:37:37.286Z,11.30
2023-02-14T04:40:04.358Z,10.13
2023-02-14T04:42:30.672Z,10.87
2023-02-14T04:44:59.257Z,10.50
2023-02-14T04:47:25.884Z,11.37
2023-02-14T04:49:52.333Z,11.73
2023-02-14T04:52:18.620Z,11.00
2023-02-14T04:54:44.907Z,10.83
2023-02-14T04:57:11.251Z,10.50
2023-02-14T04:59:37.546Z,11.90
2023-02-14T05:02:04.122Z,11.60
2023-02-14T05:04:30.421Z,12.27
2023-02-14T05:06:56.715Z,11.83
2023-02-14T05:09:23.093Z,11.53
2023-02-14T05:11:49.422Z,11.93
2023-02-14T05:14:15.728Z,12.73
2023-02-14T05:16:42.136Z,12.33
2023-02-14T05:19:08.919Z,12.83
2023-02-14T05:21:35.271Z,11.60
2023-02-14T05:24:01.617Z,12.97
2023-02-14T05:26:28.345Z,11.50
2023-02-14T05:28:54.747Z,11.43
2023-02-14T05:31:21.148Z,11.07
2023-02-14T05:33:48.095Z,10.10
2023-02-14T05:36:14.789Z,9.97
2023-02-14T05:38:41.117Z,9.87
2023-02-14T05:41:07.500Z,10.07
2023-02-14T05:43:33.835Z,10.27
2023-02-14T05:46:00.372Z,10.17
2023-02-14T05:48:26.770Z,11.97
2023-02-14T05:50:53.114Z,12.67
2023-02-14T05:53:19.568Z,13.70
2023-02-14T05:55:46.426Z,14.30
2023-02-14T05:58:12.841Z,15.93
2023-02-14T06:00:41.333Z,16.03
2023-02-14T06:03:08.207Z,16.67
2023-02-14T06:05:34.812Z,15.23
2023-02-14T06:08:01.378Z,17.83
2023-02-14T06:10:27.799Z,18.03
2023-02-14T06:12:54.203Z,19.20
2023-02-14T06:15:20.764Z,18.93
2023-02-14T06:17:54.980Z,20.10
2023-02-14T06:20:23.957Z,20.20
2023-02-14T06:22:51.149Z,21.43
2023-02-14T06:25:17.502Z,20.73
2023-02-14T06:27:43.895Z,20.77
2023-02-14T06:30:10.981Z,20.37
2023-02-14T06:32:37.415Z,20.40
2023-02-14T06:35:04.132Z,20.90
2023-02-14T06:37:30.562Z,21.97
2023-02-14T06:39:56.813Z,20.20
2023-02-14T06:42:23.182Z,21.07
2023-02-14T06:44:49.459Z,20.07
2023-02-14T06:47:16.028Z,20.60
2023-02-14T06:49:42.370Z,21.03
2023-02-14T06:52:08.748Z,19.30
2023-02-14T06:54:35.098Z,19.20
2023-02-14T06:57:01.438Z,18.83
2023-02-14T06:59:27.833Z,18.43
2023-02-14T07:01:54.430Z,18.77
2023-02-14T07:04:20.782Z,17.47
2023-02-14T07:06:47.337Z,17.60
2023-02-14T07:09:17.669Z,18.27
2023-02-14T07:11:45.235Z,18.47
2023-02-14T07:14:12.086Z,19.20
2023-02-14T07:16:38.637Z,17.53
2023-02-14T07:19:07.483Z,18.43
2023-02-14T07:21:33.819Z,18.37
2023-02-14T07:24:00.104Z,17.93
2023-02-14T07:26:26.444Z,17.87
2023-02-14T07:28:52.735Z,18.20
2023-02-14T07:31:23.467Z,17.33
2023-02-14T07:33:50.832Z,17.20
2023-02-14T07:36:17.192Z,17.40
2023-02-14T07:38:43.578Z,18.00
2023-02-14T07:41:09.956Z,17.43
2023-02-14T07:43:36.418Z,17.57
2023-02-14T07:46:03.438Z,19.07
2023-02-14T07:48:32.481Z,17.80
2023-02-14T07:51:00.470Z,19.53
2023-02-14T07:53:27.015Z,17.27
2023-02-14T07:55:53.413Z,18.27
2023-02-14T07:58:19.703Z,18.40
2023-02-14T08:00:49.273Z,18.37
2023-02-14T08:03:15.973Z,19.90
2023-02-14T08:05:42.649Z,19.30
2023-02-14T08:08:09.093Z,18.87
2023-02-14T08:10:35.431Z,19.47
2023-02-14T08:13:02.127Z,18.67
2023-02-14T08:15:52.584Z,18.53
2023-02-14T08:18:20.617Z,18.43
2023-02-14T08:20:50.940Z,19.10
2023-02-14T08:23:18.653Z,18.10
2023-02-14T08:25:45.677Z,18.43
2023-02-14T08:28:13.612Z,17.93
2023-02-14T08:30:40.614Z,16.77
2023-02-14T08:33:07.338Z,16.07
2023-02-14T08:35:34.201Z,17.33
2023-02-14T08:38:00.798Z,17.30
2023-02-14T08:40:27.323Z,17.67
2023-02-14T08:42:53.774Z,16.87
2023-02-14T08:45:20.204Z,18.03
2023-02-14T08:47:46.588Z,16.80
2023-02-14T08:50:17.156Z,17.03
2023-02-14T08:52:43.872Z,16.57
2023-02-14T08:55:11.324Z,16.00
2023-02-14T08:57:37.682Z,16.20
2023-02-14T09:00:05.360Z,15.40
2023-02-14T09:02:31.692Z,15.53
2023-02-14T09:04:57.997Z,15.53
2023-02-14T09:07:24.473Z,15.77
2023-02-14T09:09:50.765Z,14.70
2023-02-14T09:12:17.361Z,16.57
2023-02-14T09:14:44.414Z,15.30
2023-02-14T09:17:14.681Z,13.90
2023-02-14T09:19:41.731Z,15.03
2023-02-14T09:22:09.814Z,14.40
2023-02-14T09:24:37.679Z,15.80
2023-02-14T09:27:04.690Z,15.93
2023-02-14T09:29:31.888Z,15.13
2023-02-14T09:32:00.419Z,13.67
2023-02-14T09:34:28.149Z,12.50
2023-02-14T09:37:13.391Z,13.03
2023-02-14T09:39:39.921Z,12.53
2023-02-14T09:42:22.210Z,12.57
2023-02-14T09:44:56.824Z,14.07
2023-02-14T09:47:34.154Z,13.83
2023-02-14T09:50:01.536Z,13.97
2023-02-14T09:52:30.699Z,13.20
2023-02-14T09:55:01.173Z,13.13
2023-02-14T09:57:49.041Z,12.90
2023-02-14T10:00:18.829Z,12.10
2023-02-14T10:03:20.928Z,13.40
2023-02-14T10:06:24.054Z,13.10
2023-02-14T10:09:22.440Z,14.37
2023-02-14T10:11:49.019Z,14.80
2023-02-14T10:14:23.127Z,14.37
2023-02-14T10:17:15.112Z,14.57
2023-02-14T10:19:52.278Z,14.00
2023-02-14T10:22:21.287Z,13.73
2023-02-14T10:24:55.494Z,13.87
2023-02-14T10:27:36.183Z,13.53
2023-02-14T10:30:22.082Z,14.60
2023-02-14T10:32:56.281Z,14.77
2023-02-14T10:35:37.706Z,13.87
2023-02-14T10:38:18.293Z,12.77
2023-02-14T10:41:03.658Z,14.77
2023-02-14T10:43:55.756Z,14.30
2023-02-14T10:46:39.198Z,14.00
2023-02-14T10:49:30.784Z,13.97
2023-02-14T10:52:12.329Z,13.93
2023-02-14T10:54:42.337Z,13.13
2023-02-14T10:57:16.166Z,13.63
2023-02-14T10:59:52.879Z,13.07
2023-02-14T11:02:24.880Z,12.83
2023-02-14T11:04:52.102Z,12.70
2023-02-14T11:07:21.262Z,13.40
2023-02-14T11:09:47.831Z,14.77
2023-02-14T11:12:37.294Z,14.90
2023-02-14T11:15:28.828Z,14.23
2023-02-14T11:18:14.909Z,14.00
2023-02-14T11:20:41.206Z,14.93
2023-02-14T11:23:19.080Z,14.47
2023-02-14T11:25:51.113Z,15.97
2023-02-14T11:28:19.069Z,14.13
2023-02-14T11:30:47.980Z,14.20
2023-02-14T11:33:29.571Z,15.13
2023-02-14T11:35:57.553Z,13.47
2023-02-14T11:38:35.712Z,13.60
2023-02-14T11:41:03.172Z,14.30
2023-02-14T11:43:39.048Z,13.50
2023-02-14T11:46:26.076Z,14.57
2023-02-14T11:49:01.387Z,13.70
2023-02-14T11:51:35.546Z,13.33
2023-02-14T11:54:07.172Z,14.70
2023-02-14T11:56:50.409Z,15.37
2023-02-14T11:59:33.663Z,16.03
2023-02-14T12:02:18.683Z,17.87
2023-02-14T12:04:46.989Z,16.83
2023-02-14T12:07:15.837Z,16.40
2023-02-14T12:09:43.266Z,16.37
2023-02-14T12:12:19.178Z,15.53
2023-02-14T12:14:45.650Z,15.73
2023-02-14T12:17:12.481Z,14.67
2023-02-14T12:19:51.724Z,15.53
2023-02-14T12:22:27.515Z,15.00
2023-02-14T12:25:09.998Z,14.93
2023-02-14T12:27:48.418Z,15.00
2023-02-14T12:30:23.327Z,14.57
2023-02-14T12:32:52.868Z,14.10
2023-02-14T12:35:56.304Z,15.57
2023-02-14T12:38:45.239Z,14.17
2023-02-14T12:41:14.397Z,14.80
2023-02-14T12:43:53.542Z,14.30
2023-02-14T12:46:53.269Z,14.07
2023-02-14T12:49:41.322Z,16.67
2023-02-14T12:52:38.985Z,14.37
2023-02-14T12:55:29.506Z,15.40
2023-02-14T12:58:22.213Z,15.13
2023-02-14T13:01:28.721Z,15.13
2023-02-14T13:04:41.027Z,15.17
2023-02-14T13:07:38.188Z,14.63
2023-02-14T13:10:30.457Z,16.20
2023-02-14T13:13:04.716Z,16.13
2023-02-14T13:15:53.144Z,15.07
2023-02-14T13:18:50.785Z,16.10
2023-02-14T13:21:23.428Z,15.77
2023-02-14T13:23:54.992Z,15.67
2023-02-14T13:26:31.744Z,17.13
2023-02-14T13:29:03.111Z,17.00
2023-02-14T13:31:31.393Z,16.70
2023-02-14T13:34:08.120Z,17.07
2023-02-14T13:36:36.215Z,17.77
2023-02-14T13:39:03.970Z,16.47
2023-02-14T13:41:31.360Z,18.03
2023-02-14T13:44:02.434Z,18.70
2023-02-14T13:46:31.760Z,20.03
2023-02-14T13:49:27.280Z,18.53
2023-02-14T13:51:59.741Z,17.97
2023-02-14T13:54:38.125Z,17.83
2023-02-14T13:57:34.232Z,18.90
2023-02-14T14:00:19.040Z,19.40
2023-02-14T14:02:52.747Z,20.03
2023-02-14T14:05:32.406Z,20.70
2023-02-14T14:08:20.517Z,20.27
2023-02-14T14:10:50.098Z,21.30
2023-02-14T14:13:41.117Z,21.00
2023-02-14T14:16:28.833Z,21.13
2023-02-14T14:19:30.299Z,22.30
2023-02-14T14:22:08.279Z,21.57
2023-02-14T14:24:39.672Z,21.20
2023-02-14T14:27:17.503Z,20.97
2023-02-14T14:30:19.184Z,22.37
2023-02-14T14:32:45.550Z,20.50
2023-02-14T14:35:12.101Z,21.57
2023-02-14T14:37:54.355Z,20.83
2023-02-14T14:40:28.740Z,20.67
2023-02-14T14:43:00.448Z,22.63
2023-02-14T14:45:29.474Z,22.00
2023-02-14T14:47:58.324Z,22.07
2023-02-14T14:50:31.577Z,22.63
2023-02-14T14:53:03.844Z,24.63
2023-02-14T14:55:33.180Z,23.43
2023-02-14T14:58:05.137Z,23.97
2023-02-14T15:00:37.308Z,22.10
2023-02-14T15:03:09.651Z,23.03
2023-02-14T15:05:43.404Z,23.17
2023-02-14T15:08:30.951Z,23.67
2023-02-14T15:11:34.156Z,22.53
2023-02-14T15:14:02.977Z,23.90
2023-02-14T15:16:41.883Z,22.63
2023-02-14T15:19:23.768Z,23.60
2023-02-14T15:21:50.282Z,23.37
2023-02-14T15:24:18.764Z,24.00
2023-02-14T15:26:47.420Z,24.17
2023-02-14T15:29:23.636Z,22.30
2023-02-14T15:31:51.030Z,24.53
2023-02-14T15:34:38.050Z,23.63
2023-02-14T15:37:06.558Z,22.77
2023-02-14T15:39:39.813Z,22.87
2023-02-14T15:42:19.357Z,23.47
2023-02-14T15:44:45.719Z,22.87
2023-02-14T15:47:14.491Z,23.03
2023-02-14T15:49:43.524Z,24.67
2023-02-14T15:52:14.733Z,23.70
2023-02-14T15:54:47.178Z,21.90
2023-02-14T15:57:29.517Z,22.80
2023-02-14T15:59:55.975Z,24.33
2023-02-14T16:02:25.059Z,22.93
2023-02-14T16:04:51.357Z,23.67
2023-02-14T16:07:26.642Z,24.50
2023-02-14T16:10:22.775Z,23.17
2023-02-14T16:12:57.416Z,24.73
2023-02-14T16:15:26.998Z,23.83
2023-02-14T16:17:53.350Z,23.33
2023-02-14T16:20:39.985Z,23.33
2023-02-14T16:23:27.735Z,24.33
2023-02-14T16:25:57.476Z,24.00
2023-02-14T16:28:27.788Z,24.17
2023-02-14T16:30:56.703Z,26.10
2023-02-14T16:33:26.362Z,23.77
2023-02-14T16:35:53.462Z,23.57
2023-02-14T16:38:21.567Z,24.70
2023-02-14T16:40:54.157Z,24.47
2023-02-14T16:43:21.076Z,25.23
2023-02-14T16:45:47.983Z,24.73
2023-02-14T16:48:15.838Z,25.53
2023-02-14T16:50:43.171Z,25.60
2023-02-14T16:53:28.774Z,25.90
2023-02-14T16:55:57.052Z,25.43
2023-02-14T16:58:29.690Z,27.70
2023-02-14T17:00:58.551Z,25.37
2023-02-14T17:03:25.129Z,27.70
2023-02-14T17:05:52.083Z,25.07
2023-02-14T17:08:18.727Z,27.37
2023-02-14T17:10:47.397Z,25.13
2023-02-14T17:13:17.143Z,24.90
2023-02-14T17:15:43.423Z,25.63
2023-02-14T17:18:13.140Z,25.20
2023-02-14T17:20:40.207Z,25.40
2023-02-14T17:23:07.288Z,24.73
2023-02-14T17:25:33.638Z,25.97
2023-02-14T17:28:00.964Z,24.77
2023-02-14T17:30:27.632Z,26.67
2023-02-14T17:32:53.920Z,25.57
2023-02-14T17:35:20.339Z,25.60
2023-02-14T17:37:46.767Z,25.60
2023-02-14T17:40:14.869Z,23.93
2023-02-14T17:42:41.761Z,24.33
2023-02-14T17:45:11.574Z,23.40
2023-02-14T17:47:40.460Z,25.33
2023-02-14T17:50:07.534Z,25.00
2023-02-14T17:52:34.308Z,25.67
2023-02-14T17:55:00.593Z,26.20
2023-02-14T17:57:26.905Z,24.73
2023-02-14T17:59:53.440Z,25.27
2023-02-14T18:02:19.886Z,25.80
2023-02-14T18:04:48.160Z,25.47
2023-02-14T18:07:14.556Z,23.00
2023-02-14T18:09:40.944Z,24.27
2023-02-14T18:12:07.416Z,22.97
2023-02-14T18:14:33.749Z,23.27
2023-02-14T18:17:00.105Z,24.93
2023-02-14T18:19:26.403Z,24.93
2023-02-14T18:21:53.362Z,23.97
2023-02-14T18:24:20.008Z,25.30
2023-02-14T18:26:46.452Z,23.40
2023-02-14T18:29:13.654Z,24.27
2023-02-14T18:31:42.083Z,24.17
2023-02-14T18:34:08.909Z,22.20
2023-02-14T18:36:37.180Z,24.23
2023-02-14T18:39:04.453Z,25.70
2023-02-14T18:41:30.915Z,23.07
2023-02-14T18:43:57.503Z,24.07
2023-02-14T18:46:33.086Z,24.90
2023-02-14T18:48:59.695Z,23.30
2023-02-14T18:51:28.729Z,23.80
2023-02-14T18:53:56.499Z,23.40
2023-02-14T18:56:36.475Z,24.10
2023-02-14T18:59:06.368Z,25.70
2023-02-14T19:01:39.413Z,26.10
2023-02-14T19:04:08.528Z,25.30
2023-02-14T19:06:36.116Z,24.60
2023-02-14T19:09:03.266Z,23.57
2023-02-14T19:11:31.550Z,23.57
2023-02-14T19:14:00.158Z,24.77
2023-02-14T19:16:29.808Z,25.53
2023-02-14T19:18:57.577Z,22.20
2023-02-14T19:21:30.642Z,23.07
2023-02-14T19:23:57.829Z,25.33
2023-02-14T19:26:27.033Z,24.13
2023-02-14T19:28:58.552Z,23.23
2023-02-14T19:31:25.714Z,23.90
2023-02-14T19:33:52.724Z,23.77
2023-02-14T19:36:20.971Z,23.60
2023-02-14T19:38:50.239Z,23.23
2023-02-14T19:41:22.942Z,23.70
2023-02-14T19:43:53.181Z,23.23
2023-02-14T19:46:20.606Z,23.23
2023-02-14T19:48:47.453Z,23.53
2023-02-14T19:51:20.228Z,24.17
2023-02-14T19:53:46.650Z,23.20
2023-02-14T19:56:17.934Z,24.13
2023-02-14T19:58:44.219Z,22.37
2023-02-14T20:01:21.638Z,23.93
2023-02-14T20:03:48.002Z,22.63
2023-02-14T20:06:14.298Z,22.20
2023-02-14T20:08:40.596Z,23.53
2023-02-14T20:11:06.932Z,22.40
2023-02-14T20:13:33.229Z,22.10
2023-02-14T20:15:59.608Z,23.07
2023-02-14T20:18:25.868Z,22.40
2023-02-14T20:21:04.319Z,21.80
2023-02-14T20:23:33.308Z,22.10
2023-02-14T20:25:59.709Z,21.17
2023-02-14T20:28:26.008Z,22.60
2023-02-14T20:30:52.405Z,24.27
2023-02-14T20:33:18.741Z,23.47
2023-02-14T20:35:45.041Z,24.47
2023-02-14T20:38:12.085Z,23.63
2023-02-14T20:40:39.642Z,22.20
2023-02-14T20:43:06.006Z,23.20
2023-02-14T20:45:32.873Z,20.47
2023-02-14T20:48:03.132Z,20.97
2023-02-14T20:50:31.030Z,21.30
2023-02-14T20:52:57.816Z,21.47
2023-02-14T20:55:26.873Z,21.47
2023-02-14T20:57:53.704Z,20.40
2023-02-14T21:00:20.273Z,20.53
2023-02-14T21:02:46.648Z,22.27
2023-02-14T21:05:18.243Z,21.20
2023-02-14T21:07:44.543Z,21.83
2023-02-14T21:10:10.942Z,20.00
2023-02-14T21:12:38.470Z,20.37
2023-02-14T21:15:06.749Z,21.87
2023-02-14T21:17:33.429Z,21.27
2023-02-14T21:19:59.718Z,21.10
2023-02-14T21:22:26.256Z,21.37
2023-02-14T21:24:52.716Z,22.03
2023-02-14T21:27:19.053Z,20.53
2023-02-14T21:29:45.363Z,20.10
2023-02-14T21:32:11.750Z,19.37
2023-02-14T21:34:38.124Z,19.00
2023-02-14T21:37:04.454Z,19.20
2023-02-14T21:39:35.585Z,19.53
2023-02-14T21:42:02.239Z,19.33
2023-02-14T21:44:47.078Z,18.57
2023-02-14T21:47:13.372Z,17.60
2023-02-14T21:49:58.213Z,19.30
2023-02-14T21:52:24.448Z,19.90
2023-02-14T21:54:50.698Z,19.47
2023-02-14T21:57:16.968Z,19.27
2023-02-14T21:59:43.224Z,19.27
2023-02-14T22:02:11.151Z,19.77
2023-02-14T22:04:38.043Z,19.37
2023-02-14T22:07:04.612Z,20.47
2023-02-14T22:09:30.917Z,19.83
2023-02-14T22:11:57.339Z,20.63
2023-02-14T22:14:23.727Z,21.47
2023-02-14T22:16:50.006Z,21.20
2023-02-14T22:19:16.502Z,20.37
2023-02-14T22:21:43.232Z,21.13
2023-02-14T22:24:09.576Z,22.00
2023-02-14T22:26:40.709Z,21.47
2023-02-14T22:29:10.042Z,20.03
2023-02-14T22:31:39.403Z,21.07
2023-02-14T22:34:07.666Z,20.57
2023-02-14T22:36:34.014Z,21.20
2023-02-14T22:39:00.401Z,20.03
2023-02-14T22:41:26.767Z,20.37
2023-02-14T22:43:53.806Z,20.77
2023-02-14T22:46:26.073Z,20.03
2023-02-14T22:48:53.260Z,19.13
2023-02-14T22:51:20.819Z,20.07
2023-02-14T22:53:48.134Z,19.23
2023-02-14T22:56:16.913Z,18.80
2023-02-14T22:58:43.986Z,19.80
2023-02-14T23:01:19.308Z,19.67
2023-02-14T23:03:47.736Z,17.93
2023-02-14T23:06:14.630Z,19.43
2023-02-14T23:08:42.590Z,19.50
2023-02-14T23:11:14.852Z,18.40
2023-02-14T23:14:00.628Z,20.40
2023-02-14T23:16:45.888Z,19.87
2023-02-14T23:19:32.421Z,22.10
2023-02-14T23:22:03.479Z,17.83
2023-02-14T23:24:30.225Z,18.90
2023-02-14T23:26:56.551Z,19.13
2023-02-14T23:29:22.878Z,19.17
2023-02-14T23:31:49.326Z,19.43
2023-02-14T23:34:15.876Z,19.17
2023-02-14T23:36:42.236Z,19.53
2023-02-14T23:39:08.719Z,19.37
2023-02-14T23:41:55.374Z,18.33
2023-02-14T23:44:24.607Z,18.20
2023-02-14T23:46:54.311Z,19.13
2023-02-14T23:49:20.695Z,19.70
2023-02-14T23:51:48.517Z,17.87
2023-02-14T23:54:14.878Z,18.00
2023-02-14T23:56:41.249Z,18.37
2023-02-14T23:59:08.056Z,18.70
